createdAt,value
2022-09-15T06:40:42.870Z,22.30
2022-09-15T06:43:09.833Z,22.30
2022-09-15T06:45:37.017Z,22.30
2022-09-15T06:48:23.495Z,22.30
2022-09-15T10:26:33.979Z,26.40
2022-09-15T10:29:17.044Z,26.40
2022-09-15T10:31:45.643Z,26.40
2022-09-15T10:34:32.200Z,26.50
2022-09-15T10:37:09.048Z,26.70
2022-09-15T10:39:55.250Z,26.80
2022-09-15T10:42:47.064Z,26.70
2022-09-15T10:45:17.797Z,26.70
2022-09-15T10:48:03.187Z,26.70
2022-09-15T10:50:31.861Z,26.60
2022-09-15T10:53:21.983Z,26.90
2022-09-15T10:56:10.892Z,26.80
2022-09-15T10:58:49.003Z,27.00
2022-09-15T11:01:30.448Z,27.00
2022-09-15T11:04:15.884Z,27.10
2022-09-15T11:06:48.743Z,27.20
2022-09-15T11:09:25.792Z,27.20
2022-09-15T11:12:07.320Z,27.40
2022-09-15T11:14:51.678Z,27.30
2022-09-15T11:17:46.069Z,27.20
2022-09-15T11:20:32.921Z,27.20
2022-09-15T11:23:18.427Z,27.20
2022-09-15T11:25:54.133Z,27.20
2022-09-15T11:28:33.030Z,27.60
2022-09-15T11:31:06.764Z,27.60
2022-09-15T11:33:47.492Z,27.50
2022-09-15T11:36:19.680Z,27.50
2022-09-15T11:38:55.746Z,27.50
2022-09-15T11:41:50.993Z,27.40
2022-09-15T11:44:42.319Z,27.40
2022-09-15T11:47:20.832Z,27.60
2022-09-15T11:50:16.604Z,27.70
2022-09-15T11:52:53.861Z,27.70
2022-09-15T11:55:45.259Z,28.00
2022-09-15T11:58:37.676Z,28.00
2022-09-15T12:01:27.723Z,27.90
2022-09-15T18:12:45.316Z,26.40
2022-09-15T18:15:21.036Z,26.30
2022-09-15T18:17:49.629Z,26.30
2022-09-15T18:20:19.335Z,26.30
2022-09-15T18:22:47.265Z,26.30
2022-09-15T18:25:27.245Z,26.30
2022-09-15T18:27:55.231Z,26.10
2022-09-15T18:30:24.483Z,26.00
2022-09-15T18:32:51.560Z,26.00
2022-09-15T18:35:20.320Z,25.80
2022-09-15T18:37:49.015Z,25.70
2022-09-15T18:40:18.270Z,25.70
2022-09-15T18:42:45.795Z,25.70
2022-09-15T18:45:15.731Z,25.70
2022-09-15T18:47:42.799Z,25.70
2022-09-15T18:50:13.020Z,25.50
2022-09-15T18:52:41.069Z,25.30
2022-09-15T18:55:11.332Z,25.30
2022-09-15T18:57:39.651Z,25.20
2022-09-15T19:00:10.178Z,25.20
2022-09-15T19:02:37.046Z,25.20
2022-09-15T19:05:04.370Z,25.20
2022-09-15T19:07:31.214Z,25.30
2022-09-15T19:09:58.985Z,25.30
2022-09-15T19:12:25.824Z,25.40
2022-09-15T19:14:52.628Z,25.30
2022-09-15T19:17:19.374Z,25.30
2022-09-15T19:19:46.486Z,25.20
2022-09-15T19:22:13.512Z,25.20
2022-09-15T19:24:40.299Z,25.10
2022-09-15T19:27:08.176Z,24.90
2022-09-15T19:29:36.555Z,24.90
2022-09-15T19:32:09.714Z,24.70
2022-09-15T19:34:38.661Z,24.70
2022-09-15T19:37:11.387Z,24.70
2022-09-15T19:39:40.632Z,24.90
2022-09-15T19:42:08.298Z,24.80
2022-09-15T19:44:38.051Z,24.80
2022-09-15T19:47:04.851Z,24.70
2022-09-15T19:49:31.660Z,24.50
2022-09-15T19:51:58.491Z,24.60
2022-09-15T19:54:27.539Z,24.60
2022-09-15T19:56:54.487Z,24.60
2022-09-15T19:59:21.789Z,24.70
2022-09-15T20:01:48.849Z,24.70
2022-09-15T20:07:00.265Z,24.60
2022-09-15T20:09:27.051Z,24.50
2022-09-15T20:11:53.962Z,24.50
2022-09-15T20:14:20.743Z,24.60
2022-09-15T20:16:47.491Z,24.60
2022-09-15T20:19:14.432Z,24.60
2022-09-15T20:21:50.832Z,24.50
2022-09-15T20:24:19.659Z,24.40
2022-09-15T20:26:46.509Z,24.30
2022-09-15T20:29:14.355Z,24.30
2022-09-15T20:31:42.550Z,24.30
2022-09-15T20:34:09.490Z,24.40
2022-09-15T20:36:38.429Z,24.40
2022-09-15T20:39:09.219Z,24.20
2022-09-15T20:41:39.036Z,23.90
2022-09-15T20:44:09.349Z,23.90
2022-09-15T20:46:36.196Z,23.80
